x

Destruction Island, Wa (desw1) Weather Station

2:00 - Wed 1st Apr 2015 All times are PDT. -7 hours from GMT.

  • Wind
    9mph, 10mph gusts
  • Aire Temp 48°f
  • Sea Pressure 1024.1mb
  • Destruction Island, Wa
  • Destruction Island, Wa

More Historic Weather Station data

Upgrade to MSW Pro to gain access to the past 30 days of data for over 8000 Wavebouys and Weather Stations around the globe.

Join Pro

Comparision Forecast

View Surf forecast
   
mié 04/01 2:00 9 10 mph 1024.1mb 48f
1:00 11 13 mph 1023.9mb 48f
12:00 11 13 mph 1023.6mb 48f
mar 03/31 11:00 15 16 mph 1023.3mb 49f
10:00 14 16 mph 1022.9mb 48f
9:00 14 15 mph 1022.3mb 49f
8:00 16 20 mph 1021.9mb 49f
7:00 8 10 mph 1021.7mb 48f
6:00 14 16 mph 1021.6mb 47f
5:00 22 26 mph 1021.1mb 47f
4:00 20 22 mph 1021mb 50f
3:00 23 25 mph 1020.5mb 50f
2:00 11 14 mph 1020.3mb 51f
1:00 11
mph
1020mb 53f
12:00 9 10 mph 1019.7mb 51f
11:00 7 15 mph 1018.9mb 52f
10:00 14 16 mph 1018.2mb 50f
9:00 16 18 mph 1017.3mb 49f
8:00 14 15 mph 1017mb 50f
7:00 18 22 mph 1016.5mb 49f
6:00 26 37 mph 1015.9mb 48f
5:00 10 13 mph 1015.3mb 49f
4:00 15 16 mph 1014.8mb 49f
3:00 17 20 mph 1014.4mb 49f
2:00 13 15 mph 1014mb 48f
1:00 13 15 mph 1013.3mb 47f
12:00 18 22 mph 1012.3mb 47f
lun 03/30 11:00 25 30 mph 1011.8mb 47f
10:00 34 38 mph 1010.8mb 47f
9:00 26 29 mph 1009.6mb 52f
8:00 24 28 mph 1010.4mb 52f
7:00 26 30 mph 1011.7mb 52f
6:00 30 31 mph 1012.3mb 53f
5:00 28 31 mph 1013mb 53f
4:00 25 30 mph 1013.7mb 53f
3:00 24 31 mph 1014.6mb 53f
2:00 30 33 mph 1015.5mb 53f
1:00 26 30 mph 1016.4mb 52f
12:00 23 28 mph 1017.1mb 52f
11:00 25 29 mph 1017.3mb 52f
10:00 28 30 mph 1017.3mb 52f
9:00 24 29 mph 1017.7mb 52f
8:00 25 28 mph 1017.7mb 52f
7:00 26 29 mph 1017.8mb 52f
6:00 22 24 mph 1018mb 53f
5:00 20 23 mph 1018.4mb 52f
4:00 21 25 mph 1018.7mb 52f
3:00 22 25 mph 1019.3mb 53f
2:00 22 23 mph 1019.5mb 53f
1:00 23 24 mph 1019.6mb 53f
12:00 21 23 mph 1020mb 53f
dom 03/29 11:00 18 22 mph 1020.4mb 53f
10:00 22 24 mph 1020.5mb 53f
9:00 22 23 mph 1020.4mb 53f
8:00 20 22 mph 1020.4mb 53f
7:00 20 21 mph 1020.7mb 53f
6:00 20 21 mph 1021.2mb 53f
5:00 21 24 mph 1021.5mb 53f
4:00 24 26 mph 1021.7mb 53f
3:00 25 29 mph 1022.1mb 53f
2:00 24 26 mph 1022.4mb 53f
1:00 26 32 mph 1022.4mb 52f
12:00 24 28 mph 1022.6mb 51f
11:00 30 31 mph 1022.6mb 50f
10:00 33 36 mph 1022.4mb 50f
9:00 29 32 mph 1022.4mb 49f
8:00 30 32 mph 1022.6mb 49f
7:00 30 33 mph 1022.8mb 49f
6:00 29 32 mph 1023mb 49f
5:00 29 33 mph 1023.1mb 49f
4:00 29 31 mph 1023.6mb 49f
3:00 26 29 mph 1024.1mb 50f
2:00 25 28 mph 1024.6mb 50f
1:00 25 28 mph 1025.3mb 50f
12:00 24 25 mph 1025.8mb 50f
sáb 03/28 11:00 24 28 mph 1025.9mb 51f
10:00 23 24 mph 1026.3mb 51f
9:00 23 24 mph 1026.1mb 51f
8:00 24 28 mph 1026.1mb 52f
7:00 21 24 mph 1026.3mb 52f
6:00 23 29 mph 1026.6mb 52f
5:00 24 28 mph 1027.1mb 52f
4:00 24 25 mph 1027.1mb 53f
3:00 23 25 mph 1027.3mb 52f
2:00 16 21 mph 1027.6mb 52f
1:00 15 17 mph 1027.5mb 51f
12:00 20 22 mph 1026.3mb 50f
11:00 14 15 mph 1026.7mb 52f